createdAt,value
2022-11-03T00:02:10.112Z,101790.56
2022-11-03T00:04:38.058Z,101799.91
2022-11-03T00:07:05.638Z,101790.88
2022-11-03T00:09:33.310Z,101788.03
2022-11-03T00:12:02.427Z,101778.00
2022-11-03T00:14:32.238Z,101779.63
2022-11-03T00:17:00.076Z,101779.84
2022-11-03T00:19:28.096Z,101777.53
2022-11-03T00:21:58.771Z,101776.81
2022-11-03T00:24:26.824Z,101768.06
2022-11-03T00:26:54.595Z,101777.28
2022-11-03T00:29:22.727Z,101768.81
2022-11-03T00:31:50.845Z,101761.97
2022-11-03T00:34:18.970Z,101754.75
2022-11-03T00:36:52.941Z,101754.44
2022-11-03T00:39:20.644Z,101758.22
2022-11-03T00:41:48.239Z,101749.97
2022-11-03T00:44:15.938Z,101750.78
2022-11-03T00:46:43.774Z,101746.69
2022-11-03T00:49:11.479Z,101741.09
2022-11-03T00:51:39.035Z,101738.72
2022-11-03T00:54:07.828Z,101737.31
2022-11-03T00:56:41.179Z,101739.28
2022-11-03T00:59:10.520Z,101737.59
2022-11-03T01:01:47.142Z,101733.34
2022-11-03T01:04:35.789Z,101732.69
2022-11-03T01:07:04.706Z,101739.41
2022-11-03T01:09:39.549Z,101725.47
2022-11-03T01:12:18.605Z,101728.81
2022-11-03T01:14:57.752Z,101720.94
2022-11-03T01:17:34.741Z,101728.47
2022-11-03T01:20:02.644Z,101715.25
2022-11-03T01:22:30.712Z,101713.00
2022-11-03T01:24:58.284Z,101714.72
2022-11-03T01:27:26.591Z,101705.34
2022-11-03T01:29:54.457Z,101701.31
2022-11-03T01:32:22.910Z,101696.06
2022-11-03T01:34:51.832Z,101690.31
2022-11-03T01:37:19.860Z,101688.31
2022-11-03T01:39:47.419Z,101683.00
2022-11-03T01:42:15.286Z,101681.88
2022-11-03T01:44:49.724Z,101682.66
2022-11-03T01:47:33.775Z,101672.81
2022-11-03T01:50:03.996Z,101671.59
2022-11-03T01:52:49.969Z,101673.63
2022-11-03T01:55:22.957Z,101664.94
2022-11-03T01:58:08.233Z,101663.28
2022-11-03T02:00:37.587Z,101664.88
2022-11-03T02:03:07.112Z,101660.09
2022-11-03T02:05:35.572Z,101659.50
2022-11-03T02:08:12.256Z,101656.63
2022-11-03T02:10:41.241Z,101665.34
2022-11-03T02:13:21.087Z,101661.00
2022-11-03T02:15:54.556Z,101656.47
2022-11-03T02:18:30.899Z,101646.50
2022-11-03T02:21:16.303Z,101639.72
2022-11-03T02:24:19.542Z,101641.13
2022-11-03T02:26:51.280Z,101634.28
2022-11-03T02:29:19.113Z,101631.81
2022-11-03T02:32:05.879Z,101632.97
2022-11-03T02:34:48.848Z,101631.50
2022-11-03T02:37:21.395Z,101631.94
2022-11-03T02:39:55.984Z,101624.41
2022-11-03T02:42:25.014Z,101622.16
2022-11-03T02:44:55.302Z,101606.84
2022-11-03T02:47:25.952Z,101600.31
2022-11-03T02:52:43.369Z,101582.63
2022-11-03T02:55:21.781Z,101580.75
2022-11-03T02:58:23.668Z,101573.34
2022-11-03T03:01:03.634Z,101563.56
2022-11-03T03:03:49.184Z,101566.66
2022-11-03T03:06:34.414Z,101562.06
2022-11-03T03:09:07.951Z,101564.84
2022-11-03T03:11:40.182Z,101564.34
2022-11-03T03:14:25.575Z,101560.50
2022-11-03T03:17:06.828Z,101559.75
2022-11-03T03:19:49.301Z,101560.75
2022-11-03T03:22:29.516Z,101563.25
2022-11-03T03:25:17.116Z,101557.13
2022-11-03T03:27:55.199Z,101555.03
2022-11-03T03:30:23.736Z,101554.38
2022-11-03T03:32:55.274Z,101548.75
2022-11-03T03:35:27.920Z,101544.19
2022-11-03T03:38:02.430Z,101554.50
2022-11-03T03:40:34.829Z,101563.19
2022-11-03T03:43:06.972Z,101562.66
2022-11-03T03:45:36.915Z,101558.28
2022-11-03T03:48:08.503Z,101561.50
2022-11-03T03:50:38.273Z,101553.25
2022-11-03T03:53:11.189Z,101555.00
2022-11-03T03:55:44.690Z,101544.53
2022-11-03T03:58:14.982Z,101535.41
2022-11-03T04:00:43.223Z,101543.06
2022-11-03T04:03:19.006Z,101534.41
2022-11-03T04:05:47.510Z,101525.69
2022-11-03T04:08:16.374Z,101529.94
2022-11-03T04:11:05.993Z,101530.59
2022-11-03T04:13:52.776Z,101531.22
2022-11-03T04:16:39.476Z,101536.69
2022-11-03T04:19:30.012Z,101532.53
2022-11-03T04:22:16.808Z,101526.78
2022-11-03T04:24:50.576Z,101519.78
2022-11-03T04:27:36.042Z,101521.66
2022-11-03T04:30:09.946Z,101524.19
2022-11-03T04:32:37.932Z,101516.81
2022-11-03T04:35:15.843Z,101531.03
2022-11-03T04:37:47.346Z,101515.38
2022-11-03T04:40:17.815Z,101511.22
2022-11-03T04:42:47.000Z,101520.69
2022-11-03T04:45:31.069Z,101511.03
2022-11-03T04:48:02.232Z,101503.38
2022-11-03T04:50:29.798Z,101504.00
2022-11-03T04:53:01.179Z,101510.22
2022-11-03T04:55:33.400Z,101509.16
2022-11-03T04:58:07.961Z,101514.75
2022-11-03T05:00:36.152Z,101513.06
2022-11-03T05:03:05.308Z,101519.69
2022-11-03T05:05:33.346Z,101509.31
2022-11-03T05:08:01.251Z,101506.84
2022-11-03T05:10:30.190Z,101511.00
2022-11-03T05:13:00.871Z,101506.25
2022-11-03T05:15:48.888Z,101494.63
2022-11-03T05:18:35.805Z,101484.56
2022-11-03T05:21:18.535Z,101484.19
2022-11-03T05:23:58.869Z,101484.91
2022-11-03T05:26:33.278Z,101486.38
2022-11-03T05:29:04.955Z,101496.50
2022-11-03T05:31:36.100Z,101481.22
2022-11-03T05:34:20.752Z,101483.47
2022-11-03T05:36:48.564Z,101482.13
2022-11-03T05:39:35.540Z,101485.38
2022-11-03T05:42:20.572Z,101483.69
2022-11-03T05:44:49.264Z,101480.59
2022-11-03T05:47:23.783Z,101468.25
2022-11-03T05:49:57.498Z,101471.75
2022-11-03T05:52:28.023Z,101470.53
2022-11-03T05:54:59.212Z,101459.22
2022-11-03T05:57:30.605Z,101454.28
2022-11-03T05:59:58.789Z,101454.28
2022-11-03T06:02:42.514Z,101463.56
2022-11-03T06:05:23.129Z,101452.19
2022-11-03T06:07:53.336Z,101464.19
2022-11-03T06:10:27.701Z,101460.91
2022-11-03T06:13:28.573Z,101460.75
2022-11-03T06:16:19.946Z,101450.38
2022-11-03T06:18:48.177Z,101444.59
2022-11-03T06:21:24.896Z,101446.47
2022-11-03T06:24:01.971Z,101454.75
2022-11-03T06:26:31.851Z,101447.72
2022-11-03T06:29:01.422Z,101446.50
2022-11-03T06:31:32.342Z,101454.34
2022-11-03T06:34:00.281Z,101447.16
2022-11-03T06:36:32.910Z,101453.31
2022-11-03T06:39:18.350Z,101453.94
2022-11-03T06:41:46.516Z,101452.28
2022-11-03T06:44:28.926Z,101451.31
2022-11-03T06:47:02.230Z,101446.16
2022-11-03T06:49:33.901Z,101452.63
2022-11-03T06:52:29.503Z,101445.00
2022-11-03T06:55:01.429Z,101452.88
2022-11-03T06:57:33.965Z,101451.88
2022-11-03T07:00:20.253Z,101450.22
2022-11-03T07:03:17.750Z,101450.44
2022-11-03T07:05:46.138Z,101444.44
2022-11-03T07:08:33.990Z,101453.53
2022-11-03T07:11:32.760Z,101456.41
2022-11-03T07:14:18.697Z,101456.22
2022-11-03T07:17:03.154Z,101459.31
2022-11-03T07:19:38.930Z,101463.22
2022-11-03T07:22:10.545Z,101456.81
2022-11-03T07:24:42.949Z,101456.78
2022-11-03T07:27:26.032Z,101455.81
2022-11-03T07:29:59.010Z,101448.34
2022-11-03T07:32:33.633Z,101446.53
2022-11-03T07:36:00.552Z,101440.34
2022-11-03T07:38:25.384Z,101442.63
2022-11-03T07:40:55.041Z,101439.94
2022-11-03T07:43:35.327Z,101444.72
2022-11-03T07:46:05.408Z,101443.06
2022-11-03T07:48:46.098Z,101441.25
2022-11-03T07:51:33.007Z,101452.00
2022-11-03T07:54:09.314Z,101445.56
2022-11-03T07:56:44.606Z,101447.63
2022-11-03T07:59:19.663Z,101447.66
2022-11-03T08:01:57.030Z,101443.69
2022-11-03T08:04:36.232Z,101445.78
2022-11-03T08:07:03.971Z,101441.44
2022-11-03T08:09:31.872Z,101442.50
2022-11-03T08:12:07.332Z,101435.47
2022-11-03T08:14:38.530Z,101434.00
2022-11-03T08:17:06.309Z,101427.59
2022-11-03T08:19:42.570Z,101414.59
2022-11-03T08:22:10.068Z,101413.13
2022-11-03T08:24:37.596Z,101411.69
2022-11-03T08:27:05.603Z,101401.09
2022-11-03T08:29:33.796Z,101402.09
2022-11-03T08:32:05.429Z,101386.38
2022-11-03T08:34:40.702Z,101378.88
2022-11-03T08:37:08.659Z,101386.94
2022-11-03T08:39:36.625Z,101378.00
2022-11-03T08:42:04.509Z,101372.94
2022-11-03T08:44:32.647Z,101373.31
2022-11-03T08:47:00.651Z,101366.84
2022-11-03T08:49:28.455Z,101375.06
2022-11-03T08:51:55.950Z,101372.97
2022-11-03T08:54:23.181Z,101377.72
2022-11-03T08:56:50.888Z,101379.38
2022-11-03T08:59:18.931Z,101384.34
2022-11-03T09:01:47.225Z,101376.88
2022-11-03T09:04:14.591Z,101377.50
2022-11-03T09:06:42.043Z,101379.59
2022-11-03T09:11:56.755Z,101367.72
2022-11-03T09:14:24.394Z,101362.28
2022-11-03T09:16:52.073Z,101361.34
2022-11-03T09:19:19.654Z,101343.94
2022-11-03T09:21:47.362Z,101357.41
2022-11-03T09:24:15.086Z,101354.97
2022-11-03T09:26:42.428Z,101351.47
2022-11-03T09:29:10.337Z,101351.22
2022-11-03T09:31:37.657Z,101348.22
2022-11-03T09:34:05.007Z,101345.78
2022-11-03T09:36:32.367Z,101338.81
2022-11-03T09:39:00.064Z,101338.75
2022-11-03T09:41:45.836Z,101337.06
2022-11-03T09:44:15.115Z,101335.97
2022-11-03T09:46:42.580Z,101331.28
2022-11-03T09:49:15.314Z,101327.50
2022-11-03T09:51:43.622Z,101323.66
2022-11-03T09:54:15.992Z,101323.09
2022-11-03T09:56:44.556Z,101331.34
2022-11-03T09:59:22.802Z,101328.19
2022-11-03T10:01:53.856Z,101326.72
2022-11-03T10:04:27.688Z,101325.19
2022-11-03T10:06:57.617Z,101320.03
2022-11-03T10:09:26.823Z,101321.72
2022-11-03T10:11:55.187Z,101309.91
2022-11-03T10:14:24.309Z,101304.63
2022-11-03T10:16:56.558Z,101294.03
2022-11-03T10:19:25.447Z,101288.88
2022-11-03T10:21:53.326Z,101278.03
2022-11-03T10:24:20.823Z,101280.72
2022-11-03T10:26:51.084Z,101271.75
2022-11-03T10:31:50.729Z,101269.84
2022-11-03T10:34:38.056Z,101273.00
2022-11-03T10:37:21.138Z,101266.88
2022-11-03T10:39:51.277Z,101264.63
2022-11-03T10:42:21.483Z,101275.78
2022-11-03T10:44:52.197Z,101273.41
2022-11-03T10:47:34.539Z,101274.34
2022-11-03T10:50:19.883Z,101262.69
2022-11-03T10:52:51.032Z,101262.69
2022-11-03T10:55:25.232Z,101262.34
2022-11-03T10:57:58.411Z,101264.56
2022-11-03T11:00:26.559Z,101255.88
2022-11-03T11:02:59.663Z,101251.50
2022-11-03T11:05:30.940Z,101250.59
2022-11-03T11:08:00.452Z,101247.63
2022-11-03T11:10:30.186Z,101253.28
2022-11-03T11:13:06.393Z,101236.25
2022-11-03T11:16:30.056Z,101228.69
2022-11-03T11:18:57.734Z,101219.41
2022-11-03T11:21:25.919Z,101222.06
2022-11-03T11:23:53.307Z,101219.28
2022-11-03T11:26:26.855Z,101221.28
2022-11-03T11:29:12.045Z,101211.81
2022-11-03T11:31:43.997Z,101205.66
2022-11-03T11:34:12.871Z,101208.94
2022-11-03T11:36:42.173Z,101207.72
2022-11-03T11:39:13.240Z,101195.56
2022-11-03T11:42:15.879Z,101195.88
2022-11-03T11:44:43.603Z,101178.00
2022-11-03T11:47:29.466Z,101176.34
2022-11-03T11:50:12.131Z,101172.81
2022-11-03T11:52:52.419Z,101167.88
2022-11-03T11:55:43.000Z,101161.75
2022-11-03T11:58:22.737Z,101146.28
2022-11-03T12:00:56.807Z,101141.69
2022-11-03T12:03:35.436Z,101144.34
2022-11-03T12:06:03.491Z,101142.09
2022-11-03T12:08:32.597Z,101142.59
2022-11-03T12:11:05.633Z,101129.66
2022-11-03T12:13:49.257Z,101122.00
2022-11-03T12:16:34.289Z,101114.19
2022-11-03T12:19:37.137Z,101103.91
2022-11-03T12:22:31.897Z,101110.72
2022-11-03T12:25:01.049Z,101101.00
2022-11-03T12:27:31.998Z,101108.34
2022-11-03T12:30:27.204Z,101103.44
2022-11-03T12:33:01.178Z,101104.50
2022-11-03T12:35:28.683Z,101098.50
2022-11-03T12:38:05.966Z,101107.22
2022-11-03T12:40:35.466Z,101106.31
2022-11-03T12:43:05.159Z,101092.53
2022-11-03T12:45:32.939Z,101084.47
2022-11-03T12:48:08.037Z,101087.44
2022-11-03T12:50:38.097Z,101084.13
2022-11-03T12:53:17.141Z,101077.16
2022-11-03T12:55:45.309Z,101070.34
2022-11-03T12:58:13.044Z,101065.00
2022-11-03T13:00:40.584Z,101066.56
2022-11-03T13:03:08.226Z,101053.34
2022-11-03T13:05:35.949Z,101050.63
2022-11-03T13:08:03.876Z,101044.38
2022-11-03T13:10:31.540Z,101043.25
2022-11-03T13:12:59.012Z,101043.50
2022-11-03T13:15:26.529Z,101034.72
2022-11-03T13:20:41.763Z,101046.50
2022-11-03T13:23:09.646Z,101057.81
2022-11-03T13:25:37.348Z,101058.31
2022-11-03T13:28:10.386Z,101062.44
2022-11-03T13:30:38.352Z,101049.72
2022-11-03T13:33:06.319Z,101033.25
2022-11-03T13:35:34.931Z,101011.03
2022-11-03T13:38:03.192Z,100999.56
2022-11-03T13:43:18.161Z,101000.13
2022-11-03T13:45:48.062Z,100996.38
2022-11-03T13:51:07.616Z,100961.59
2022-11-03T13:56:23.839Z,100954.88
2022-11-03T14:01:40.762Z,100949.69
2022-11-03T14:07:05.194Z,100939.28
2022-11-03T14:09:33.963Z,100941.91
2022-11-03T14:12:20.272Z,100949.28
2022-11-03T14:14:50.629Z,100954.94
2022-11-03T14:17:20.150Z,100968.72
2022-11-03T14:19:52.416Z,100961.09
2022-11-03T14:22:24.970Z,100967.91
2022-11-03T14:24:54.875Z,100967.66
2022-11-03T14:27:22.794Z,100960.09
2022-11-03T14:29:54.730Z,100954.47
2022-11-03T14:32:25.393Z,100963.56
2022-11-03T14:35:10.904Z,100971.91
2022-11-03T14:37:50.839Z,100975.69
2022-11-03T14:40:40.554Z,100968.41
2022-11-03T14:43:15.661Z,100955.84
2022-11-03T14:45:48.714Z,100969.47
2022-11-03T14:48:16.496Z,100967.09
2022-11-03T14:50:44.278Z,100965.75
2022-11-03T14:53:19.475Z,100958.06
2022-11-03T14:55:47.675Z,100961.44
2022-11-03T14:58:15.305Z,100962.25
2022-11-03T15:00:43.123Z,100963.16
2022-11-03T15:03:10.933Z,100958.53
2022-11-03T15:05:47.312Z,100960.03
2022-11-03T15:08:20.218Z,100956.25
2022-11-03T15:10:48.120Z,100953.66
2022-11-03T15:13:16.908Z,100956.09
2022-11-03T15:15:44.306Z,100958.06
2022-11-03T15:18:12.136Z,100949.03
2022-11-03T15:20:40.572Z,100952.50
2022-11-03T15:25:57.860Z,100954.06
2022-11-03T15:28:25.571Z,100956.09
2022-11-03T15:31:31.499Z,100953.06
2022-11-03T15:34:08.999Z,100953.22
2022-11-03T15:36:39.566Z,100950.03
2022-11-03T15:39:07.258Z,100942.16
2022-11-03T15:41:35.028Z,100941.81
2022-11-03T15:44:03.507Z,100930.50
2022-11-03T15:46:31.129Z,100940.00
2022-11-03T15:48:58.626Z,100942.66
2022-11-03T15:51:27.031Z,100935.44
2022-11-03T15:53:58.478Z,100940.00
2022-11-03T15:56:33.057Z,100937.56
2022-11-03T15:59:02.459Z,100944.75
2022-11-03T16:01:31.189Z,100942.56
2022-11-03T16:04:01.685Z,100937.41
2022-11-03T16:06:53.841Z,100929.75
2022-11-03T16:09:18.482Z,100933.53
2022-11-03T16:11:46.762Z,100925.44
2022-11-03T16:14:14.148Z,100915.06
2022-11-03T16:16:41.448Z,100922.13
2022-11-03T16:19:10.691Z,100915.56
2022-11-03T16:21:41.834Z,100925.81
2022-11-03T16:24:10.130Z,100926.63
2022-11-03T16:26:38.320Z,100933.38
2022-11-03T16:29:12.596Z,100936.09
2022-11-03T16:31:42.042Z,100925.84
2022-11-03T16:34:13.141Z,100916.16
2022-11-03T16:36:40.647Z,100920.97
2022-11-03T16:39:08.666Z,100932.38
2022-11-03T16:41:36.445Z,100913.03
2022-11-03T16:44:04.317Z,100909.38
2022-11-03T16:46:32.105Z,100913.97
2022-11-03T16:51:28.011Z,100921.16
2022-11-03T16:54:07.878Z,100930.13
2022-11-03T16:56:41.969Z,100930.47
2022-11-03T16:59:09.344Z,100930.13
2022-11-03T17:01:37.296Z,100930.94
2022-11-03T17:04:05.583Z,100923.91
2022-11-03T17:06:33.549Z,100928.13
2022-11-03T17:09:02.070Z,100932.97
2022-11-03T17:11:39.799Z,100944.16
2022-11-03T17:14:13.741Z,100937.78
2022-11-03T17:16:52.142Z,100947.44
2022-11-03T17:19:20.419Z,100950.28
2022-11-03T17:21:48.158Z,100961.16
2022-11-03T17:24:15.644Z,100953.91
2022-11-03T17:26:53.398Z,100954.59
2022-11-03T17:29:24.776Z,100949.44
2022-11-03T17:31:54.138Z,100964.22
2022-11-03T17:34:25.076Z,100960.84
2022-11-03T17:36:54.118Z,100953.78
2022-11-03T17:39:29.542Z,100955.44
2022-11-03T17:42:17.250Z,100963.53
2022-11-03T17:44:47.529Z,100964.47
2022-11-03T17:47:18.893Z,100970.69
2022-11-03T17:49:47.144Z,100969.88
2022-11-03T17:52:28.229Z,100979.97
2022-11-03T17:55:00.858Z,100970.78
2022-11-03T17:57:29.308Z,100970.00
2022-11-03T18:00:00.768Z,100975.25
2022-11-03T18:02:32.698Z,100983.34
2022-11-03T18:05:28.002Z,100984.53
2022-11-03T18:07:57.688Z,100979.97
2022-11-03T18:10:34.692Z,100982.69
2022-11-03T18:13:19.281Z,100981.72
2022-11-03T18:16:07.029Z,100994.75
2022-11-03T18:18:45.889Z,101000.84
2022-11-03T18:21:24.094Z,101004.97
2022-11-03T18:23:51.684Z,101007.09
2022-11-03T18:26:22.234Z,101007.91
2022-11-03T18:28:53.112Z,101006.72
2022-11-03T18:31:51.116Z,101006.81
2022-11-03T18:37:36.096Z,101009.66
2022-11-03T18:40:07.569Z,101002.59
2022-11-03T18:42:40.117Z,101008.25
2022-11-03T18:45:14.323Z,101004.84
2022-11-03T18:47:49.593Z,101008.47
2022-11-03T18:50:18.982Z,101009.44
2022-11-03T18:52:50.100Z,100998.16
2022-11-03T18:55:41.941Z,100990.63
2022-11-03T18:58:17.970Z,100996.16
2022-11-03T19:00:45.502Z,100986.16
2022-11-03T19:03:19.884Z,100998.50
2022-11-03T19:05:53.166Z,101003.22
2022-11-03T19:08:23.701Z,101010.22
2022-11-03T19:11:04.077Z,101017.28
2022-11-03T19:13:57.037Z,101027.03
2022-11-03T19:16:25.264Z,101036.50
2022-11-03T19:18:55.692Z,101038.41
2022-11-03T19:21:37.804Z,101040.72
2022-11-03T19:24:12.692Z,101037.78
2022-11-03T19:26:48.737Z,101034.88
2022-11-03T19:29:25.905Z,101037.00
2022-11-03T19:31:56.046Z,101028.06
2022-11-03T19:34:36.848Z,101031.91
2022-11-03T19:37:09.397Z,101032.97
2022-11-03T19:39:52.685Z,101036.94
2022-11-03T19:42:29.869Z,101044.44
2022-11-03T19:45:02.071Z,101030.75
2022-11-03T19:47:41.782Z,101034.47
2022-11-03T19:50:22.954Z,101030.59
2022-11-03T19:53:08.929Z,101039.28
2022-11-03T19:55:42.770Z,101035.28
2022-11-03T19:58:32.142Z,101037.66
2022-11-03T20:01:08.783Z,101038.41
2022-11-03T20:03:41.818Z,101042.75
2022-11-03T20:06:19.102Z,101046.97
2022-11-03T20:08:47.860Z,101053.06
2022-11-03T20:11:19.738Z,101053.66
2022-11-03T20:13:48.600Z,101054.72
2022-11-03T20:16:32.829Z,101063.31
2022-11-03T20:19:03.439Z,101065.41
2022-11-03T20:21:34.460Z,101067.72
2022-11-03T20:24:02.540Z,101070.56
2022-11-03T20:26:35.109Z,101071.78
2022-11-03T20:29:04.242Z,101067.00
2022-11-03T20:31:31.782Z,101064.59
2022-11-03T20:33:59.328Z,101060.31
2022-11-03T20:36:42.135Z,101061.16
2022-11-03T20:39:15.464Z,101065.03
2022-11-03T20:41:57.018Z,101060.69
2022-11-03T20:44:24.776Z,101071.09
2022-11-03T20:46:57.422Z,101069.00
2022-11-03T20:49:25.450Z,101070.00
2022-11-03T20:52:14.395Z,101075.38
2022-11-03T20:54:44.083Z,101066.34
2022-11-03T20:57:37.579Z,101079.06
2022-11-03T21:00:26.717Z,101074.31
2022-11-03T21:03:37.760Z,101086.53
2022-11-03T21:06:17.320Z,101089.63
2022-11-03T21:09:14.111Z,101087.28
2022-11-03T21:11:47.421Z,101102.78
2022-11-03T21:14:31.118Z,101101.75
2022-11-03T21:17:18.985Z,101099.63
2022-11-03T21:19:59.853Z,101106.69
2022-11-03T21:22:51.821Z,101100.59
2022-11-03T21:25:27.156Z,101113.28
2022-11-03T21:27:55.486Z,101103.66
2022-11-03T21:30:24.251Z,101103.66
2022-11-03T21:32:55.846Z,101103.28
2022-11-03T21:35:24.333Z,101092.97
2022-11-03T21:37:59.419Z,101103.75
2022-11-03T21:40:27.455Z,101097.63
2022-11-03T21:43:33.791Z,101101.59
2022-11-03T21:46:19.728Z,101092.31
2022-11-03T21:49:09.693Z,101085.19
2022-11-03T21:51:37.885Z,101086.25
2022-11-03T21:54:05.549Z,101087.09
2022-11-03T21:56:33.162Z,101091.78
2022-11-03T21:59:03.615Z,101093.66
2022-11-03T22:01:32.053Z,101100.69
2022-11-03T22:04:00.716Z,101106.06
2022-11-03T22:06:28.177Z,101105.03
2022-11-03T22:08:56.005Z,101089.91
2022-11-03T22:11:23.821Z,101095.53
2022-11-03T22:14:01.914Z,101085.44
2022-11-03T22:16:40.173Z,101088.34
2022-11-03T22:19:31.868Z,101098.69
2022-11-03T22:22:19.145Z,101100.09
2022-11-03T22:25:05.443Z,101101.16
2022-11-03T22:27:34.368Z,101101.97
2022-11-03T22:30:22.694Z,101107.16
2022-11-03T22:32:52.792Z,101095.28
2022-11-03T22:35:42.582Z,101101.06
2022-11-03T22:38:15.846Z,101095.97
2022-11-03T22:41:05.947Z,101096.38
2022-11-03T22:43:52.261Z,101089.91
2022-11-03T22:46:30.298Z,101091.31
2022-11-03T22:49:09.018Z,101081.38
2022-11-03T22:52:01.775Z,101087.56
2022-11-03T22:54:37.043Z,101084.06
2022-11-03T22:57:20.336Z,101087.81
2022-11-03T22:59:53.171Z,101093.44
2022-11-03T23:02:34.702Z,101083.00
2022-11-03T23:05:11.255Z,101085.44
2022-11-03T23:07:45.873Z,101087.34
2022-11-03T23:10:15.122Z,101085.25
2022-11-03T23:12:53.614Z,101077.59
2022-11-03T23:15:43.594Z,101077.16
2022-11-03T23:18:38.668Z,101081.38
2022-11-03T23:21:13.325Z,101074.22
2022-11-03T23:24:05.032Z,101080.22
2022-11-03T23:26:39.837Z,101077.16
2022-11-03T23:29:20.782Z,101073.84
2022-11-03T23:31:57.511Z,101063.84
2022-11-03T23:34:31.401Z,101071.03
2022-11-03T23:37:00.310Z,101060.09
2022-11-03T23:39:27.741Z,101058.38
2022-11-03T23:41:55.259Z,101060.19
2022-11-03T23:44:23.431Z,101069.34
2022-11-03T23:47:09.995Z,101073.84
2022-11-03T23:49:37.892Z,101079.81
2022-11-03T23:52:05.537Z,101086.34
2022-11-03T23:54:33.165Z,101091.28
2022-11-03T23:57:19.506Z,101093.03
2022-11-03T23:59:47.171Z,101094.50
